Tiempo atmosférico en la estación meteorológica de Roquetas de Mar, Almería (7 m.)



Fecha
DESCASC
Temp. máxima en grados centígrados (hora)
DESCASC
Temp. mínima en grados centígrados (hora)
DESCASC
Temp. media en grados centígrados
DESCASC
Racha de viento máxima en m/sg (hora)
DESCASC
Velocidad máxima media en intervalos de 10 minutos(hora)
DESCASC
Precipitaciones diarias en mm
DESCASC
Precipitaciones de 00:00 a 06:00 en mm
DESCASC
Precipitaciones de 06:00 a 12:00 en mm
DESCASC
Precipitaciones de 12:00 a 18:00 en mm
DESCASC
Precipitaciones de 18:00 a 24:00 en mm
DESCASC
17-09-2020 27.3 (14:30) 22.8 (23:30) 25 18.33 (09:50) 8.33 (23:40) 0 0 0 0 0
16-09-2020 26.8 (15:00) 19 (08:40) 22.9 -- (--) -- (--) 0 0 0 0 0
15-09-2020 27.7 (16:10) 19.9 (07:50) 23.8 -- (--) -- (--) 0 0 0 0 0
14-09-2020 30.8 (13:30) 23.9 (00:00) 27.3 -- (--) -- (--) 0 0 0 0 0
13-09-2020 29.9 (12:10) 24.9 (00:00) 27.4 -- (--) -- (--) 0 0 0 0 0
12-09-2020 30.7 (12:40) 21.3 (00:00) 26 -- (--) -- (--) 0 0 0 0 0
11-09-2020 28 (16:10) 18.3 (00:00) 23.1 -- (--) -- (--) 0 0 0 0 0
10-09-2020 26.3 (16:00) 17.5 (00:00) 21.9 -- (--) -- (--) 0 0 0 0 0
09-09-2020 26.5 (14:00) 21.3 (00:00) 23.9 -- (--) -- (--) 0 0 0 0 0
08-09-2020 28.4 (15:00) 23.2 (00:00) 25.8 -- (--) -- (--) 0 0 0 0 0
07-09-2020 26.5 (13:50) 18 (08:20) 22.3 -- (--) -- (--) 0 0 0 0 0
06-09-2020 27.8 (15:20) 19.1 (00:00) 23.4 -- (--) -- (--) 0 0 0 0 0
05-09-2020 27.9 (14:20) 19.5 (00:00) 23.7 -- (--) -- (--) 0 0 0 0 0
04-09-2020 29.9 (13:50) 22.6 (00:00) 26.3 -- (--) -- (--) 0 0 0 0 0
03-09-2020 28 (12:20) 22.3 (00:00) 25.1 -- (--) -- (--) 0 0 0 0 0
02-09-2020 27.2 (15:20) 17.4 (00:00) 22.3 -- (--) -- (--) 0 0 0 0 0
01-09-2020 27 (12:00) 18.1 (00:00) 22.6 -- (--) -- (--) 0 0 0 0 0
31-08-2020 27.5 (12:50) 20 (00:00) 23.8 -- (--) -- (--) 0 0 0 0 0
30-08-2020 27.4 (13:30) 18.5 (00:00) 22.9 -- (--) -- (--) 0 0 0 0 0
29-08-2020 26.1 (16:30) 18.8 (00:00) 22.4 -- (--) -- (--) 0 0 0 0 0
28-08-2020 28.3 (13:40) 21.2 (00:00) 24.8 -- (--) -- (--) 0 0 0 0 0
27-08-2020 29.6 (16:00) 20.9 (00:00) 25.3 -- (--) -- (--) 0 0 0 0 0
26-08-2020 -- (--) -- (--) -- -- (--) -- (--) -- 0 0 -- --
25-08-2020 -- (--) -- (--) -- -- (--) -- (--) -- 0 -- 0 --
24-08-2020 29.6 (15:10) 22.5 (00:00) 26.1 -- (--) -- (--) 0 0 0 0 0
23-08-2020 29.7 (16:20) 21.1 (00:00) 25.4 -- (--) -- (--) 0 0 0 0 0
22-08-2020 28.6 (18:00) 20.2 (00:00) 24.4 -- (--) -- (--) 0 0 0 0 0
21-08-2020 28.4 (16:50) 20.7 (00:00) 24.6 -- (--) -- (--) 0 0 0 0 0
20-08-2020 30.4 (17:40) 21.5 (00:00) 25.9 -- (--) -- (--) 0 0 0 0 0

Gráficas

Temp. máximas Temp. mínimas Temp. medias Precipitaciones Rachas de viento máximas Velocidades máximas media en intervalos de 10 minutos

Datos horarios

Fecha y hora oficial Temperatura (ºC) Velocidad del viento (km/h) Dirección del viento Racha (km/h) Dirección de racha Precipitación (mm) Presión (hPa) Tendencia (hPa) Humedad (%)
2020-09-18 23:00:00 22.7 9 Oeste 16 Oeste 0 1016.1 2.1 78
2020-09-18 22:00:00 23.4 0 Calma 9 Sudeste 0 1015.2 1.5 70
2020-09-18 21:00:00 25 6 Este 12 Nordeste 0 1014.3 0.8 64
2020-09-18 20:00:00 26.4 7 Nordeste 22 Nordeste 0 1014 -0.2 57
2020-09-18 19:00:00 26.8 14 Nordeste 24 Nordeste 0 1013.7 -0.9 54
2020-09-18 18:00:00 26.7 14 Este 24 Este 0 1013.5 -1.5 58
2020-09-18 17:00:00 24.6 13 Este 21 Este 0 1014.2 -1.4 73
2020-09-18 16:00:00 24.6 15 Este 25 Este 0 1014.6 -1.9 73
2020-09-18 15:00:00 23.5 9 Norte 19 Norte 0 1015 -1.2 87
2020-09-18 14:00:00 22.4 10 Nordeste 24 Nordeste 0 1015.6 -0.3 89
2020-09-18 13:00:00 21.4 -- -- -- -- -- 1016.5 1.7 89
2020-09-18 12:00:00 21.6 8 Nordeste 29 Nordeste 0 1016.2 1.5 89
2020-09-18 11:00:00 20.7 14 Este 36 Nordeste 0 1015.9 2.1 87
2020-09-18 10:00:00 21.4 15 Este 31 Nordeste 0 1014.8 1.6 85
2020-09-18 09:00:00 21.3 13 Este 24 Este 0 1014.7 1 84
2020-09-18 08:00:00 21.3 13 Este 25 Nordeste 0 1013.8 -1.4 83
2020-09-18 07:00:00 22 5 Este 37 Noroeste 0 1013.2 -2.3 78
2020-09-18 06:00:00 21.3 21 Noroeste 45 Noroeste 0 1013.7 -2.3 75
2020-09-18 05:00:00 20.2 24 Noroeste 50 Noroeste 0 1015.2 -1.2 81
2020-09-18 04:00:00 22.5 21 Noroeste 39 Noroeste 0 1015.5 0.6 68
2020-09-18 03:00:00 23.2 21 Noroeste 60 Oeste 0 1016 0.8 65
2020-09-18 02:00:00 25.4 35 Oeste 58 Oeste 0 1016.4 1 54
2020-09-18 01:00:00 26.1 23 Oeste 45 Oeste 0 1014.9 -- 52
2020-09-18 00:00:00 25.4 28 Oeste 49 Oeste 0 1015.2 -- 56
2020-09-17 23:00:00 24.6 16 Sudoeste 27 Oeste 0 1015.4 -- 84
2020-09-17 22:00:00 24.7 9 Sudoeste 19 Oeste 0 1014.2 -- 82
2020-09-17 21:00:00 25.1 3 Oeste 13 Nordeste 0 1012.6 -- 78
2020-09-17 20:00:00 25.4 8 Este 21 Este 0 1012.5 -- 77
2020-09-17 19:00:00 26.4 15 Este 24 Este 0 1012.4 -- 74
2020-09-17 18:00:00 26.7 15 Este 27 Este 0 1013.2 -- 76
2020-09-17 17:00:00 26.1 18 Este 28 Este 0 1013.8 -- 77
2020-09-17 16:00:00 26.8 16 Sudeste 27 Sudeste 0 1014.1 -- 75
2020-09-17 15:00:00 26.5 16 Sudeste 31 Sudeste 0 1014.7 -- 73
2020-09-17 14:00:00 26.8 14 Sudeste 26 Sudeste 0 1015.1 -- 71
2020-09-17 13:00:00 26.7 15 Este 28 Este 0 1015.5 -- 72
2020-09-17 12:00:00 25.7 16 Este 26 Este 0 1016.1 -- 81
2020-09-17 11:00:00 24 13 Nordeste 21 Este 0 1015.9 -- 87
2020-09-17 10:00:00 23.6 -- -- -- -- 0 1016.1 -- 88
2020-09-17 09:00:00 23.4 4 Este 14 Nordeste 0 1016.4 -- 87
2020-09-17 08:00:00 23.1 4 Este 11 Noroeste 0 1015.8 -- 87
2020-09-17 07:00:00 23.3 4 Sudoeste 11 Noroeste 0 1015.9 -- 87
2020-09-17 06:00:00 23.4 5 Nordeste 12 Sudeste 0 1015.1 -- 86
2020-09-17 05:00:00 23.6 6 Sudeste 11 Este 0 1015.3 -- 86
2020-09-17 04:00:00 23.2 2 Nordeste 8 Sur 0 1015.8 -- 85
2020-09-17 03:00:00 23.7 3 Oeste 18 Oeste 0 1016.7 -- 85
2020-09-17 02:00:00 23.5 8 Oeste 16 Noroeste 0 1017.4 -- 85
2020-09-17 01:00:00 23.7 3 Oeste 13 Noroeste 0 1017.3 -- 84
2020-09-17 00:00:00 23.8 5 Sudoeste 12 Noroeste 0 1017.1 -- 84
2020-09-16 23:00:00 24.1 3 Noroeste 14 Noroeste 0 1016.8 -- 83
2020-09-16 22:00:00 24.3 4 Oeste 8 Oeste 0 1016.6 -- 83
2020-09-16 21:00:00 24.4 6 Este 14 Este 0 1015.7 -- 82
2020-09-16 20:00:00 24.8 7 Sudeste 23 Sudeste 0 1015.6 -- 80
2020-09-16 19:00:00 25.8 14 Este 24 Sudeste 0 1015.1 -- 75
2020-09-16 18:00:00 26.5 14 Este 22 Sudeste 0 1015.5 -- 74
2020-09-16 17:00:00 26.4 10 Sudeste 17 Sudeste 0 1016.1 -- 74
2020-09-16 16:00:00 26.1 9 Sudeste 19 Sudeste 0 1016.9 -- 74
2020-09-16 15:00:00 26.8 11 Sudeste 18 Sudeste 0 1017.7 -- 70
2020-09-16 14:00:00 26.4 10 Sudeste 16 Sudeste 0 1018.3 -- 69
2020-09-16 13:00:00 26.1 6 Sur 14 Este 0 1019.1 -- 68
2020-09-16 12:00:00 25.5 9 Este 19 Este 0 1018.7 -- 67
2020-09-16 11:00:00 24.5 10 Este 17 Este 0 1018.7 -- 77
2020-09-16 10:00:00 22.1 3 Norte 19 Nordeste 0 1018.9 -- 89
2020-09-16 09:00:00 19.2 8 Noroeste 19 Noroeste 0 1018.3 -- 89
2020-09-16 08:00:00 19.7 6 Nordeste 18 Nordeste 0 1017.9 -- 88
2020-09-16 07:00:00 20.2 -- -- -- -- 0 1018.1 -- 88
2020-09-16 06:00:00 20.2 -- -- -- -- 0 1018.6 -- 87
2020-09-16 05:00:00 20.2 -- -- -- -- 0 1018.8 -- 86
2020-09-16 04:00:00 20.7 -- -- -- -- 0 1019.2 -- 84
2020-09-16 03:00:00 21.3 -- -- -- -- 0 1019.9 -- 83
2020-09-16 02:00:00 21.2 -- -- -- -- 0 1019.9 -- 81
2020-09-16 01:00:00 22.3 -- -- -- -- 0 1020 -- 81
2020-09-16 00:00:00 22 -- -- -- -- 0 1020 -- 78
2020-09-15 23:00:00 22.5 -- -- -- -- 0 1019.8 -- 74
2020-09-15 22:00:00 24.2 -- -- -- -- 0 1019.1 -- 73
2020-09-15 21:00:00 24.9 -- -- -- -- 0 1018.8 -- 72
2020-09-15 20:00:00 25.8 -- -- -- -- 0 1018.7 -- 68
2020-09-15 19:00:00 26.9 -- -- -- -- 0 1018.6 -- 65
2020-09-15 18:00:00 27 -- -- -- -- 0 1018.9 -- 64
2020-09-15 17:00:00 27 -- -- -- -- 0 1019.2 -- 63
2020-09-15 16:00:00 27.3 -- -- -- -- 0 1019.9 -- 60
2020-09-15 15:00:00 27.1 -- -- -- -- 0 1020.6 -- 61
2020-09-15 14:00:00 27.1 -- -- -- -- 0 1021.2 -- 60
2020-09-15 13:00:00 26.7 -- -- -- -- 0 1021.6 -- 59
2020-09-15 12:00:00 25.5 -- -- -- -- 0 1021.4 -- 67
2020-09-15 11:00:00 27.5 -- -- -- -- 0 1020.8 -- 56
2020-09-15 10:00:00 23.9 -- -- -- -- 0 1020.2 -- 71
2020-09-15 09:00:00 21.6 -- -- -- -- 0 1020.1 -- 81
2020-09-15 08:00:00 20.2 -- -- -- -- 0 1019.5 -- 82
2020-09-15 07:00:00 20.9 -- -- -- -- 0 1019.2 -- 78
2020-09-15 06:00:00 22.3 -- -- -- -- 0 1019.4 -- 79
2020-09-15 05:00:00 22.6 -- -- -- -- 0 1020 -- 81
2020-09-15 04:00:00 23.4 -- -- -- -- 0 1019.2 -- 82
2020-09-15 03:00:00 23.4 -- -- -- -- 0 1019.9 -- 80
2020-09-15 02:00:00 23.9 -- -- -- -- 0 1021.7 -- 77
2020-09-15 01:00:00 23.8 -- -- -- -- 0 1021.1 -- 73
2020-09-15 00:00:00 24 -- -- -- -- 0 1020.9 -- 76
2020-09-14 23:00:00 24.1 -- -- -- -- 0 1020.2 -- 77
2020-09-14 22:00:00 24 -- -- -- -- 0 1018.8 -- 77
2020-09-14 21:00:00 24.4 -- -- -- -- 0 1019.7 -- 79
2020-09-14 20:00:00 24.9 -- -- -- -- 0 1018.5 -- 76
2020-09-14 19:00:00 25.6 -- -- -- -- 0 1018.5 -- 74
2020-09-14 18:00:00 25.7 -- -- -- -- 0 1019.1 -- 73
2020-09-14 17:00:00 27.3 -- -- -- -- 0 1019.2 -- 66
2020-09-14 16:00:00 27.3 -- -- -- -- 0 1019.7 -- 61
2020-09-14 15:00:00 27.5 -- -- -- -- 0 1020.1 -- 60
2020-09-14 14:00:00 28.5 -- -- -- -- 0 1020.3 -- 55
2020-09-14 13:00:00 30.2 -- -- -- -- 0 1020.5 -- 44
2020-09-14 12:00:00 28 -- -- -- -- 0 1020.7 -- 51
2020-09-14 11:00:00 27.3 -- -- -- -- 0 1020.6 -- 56
2020-09-14 10:00:00 25.6 -- -- -- -- 0 1019.2 -- 61
2020-09-14 09:00:00 24.6 -- -- -- -- 0 1018.7 -- 62
2020-09-14 08:00:00 24.9 -- -- -- -- 0 1018.3 -- 62
2020-09-14 07:00:00 25.2 -- -- -- -- 0 1019 -- 57
2020-09-14 06:00:00 24.8 -- -- -- -- 0 1019.5 -- 64
2020-09-14 05:00:00 24.7 -- -- -- -- 0 1019.3 -- 63
2020-09-14 04:00:00 24.5 -- -- -- -- 0 1019.5 -- 70
2020-09-14 03:00:00 24.9 -- -- -- -- 0 1020.7 -- 71
2020-09-14 02:00:00 25 -- -- -- -- 0 1021.1 -- 71
2020-09-14 01:00:00 25.4 -- -- -- -- 0 1021.2 -- 68
2020-09-14 00:00:00 25.7 -- -- -- -- 0 1020.4 -- 63
2020-09-13 23:00:00 27.3 -- -- -- -- 0 1020.4 -- 47
2020-09-13 22:00:00 26.8 -- -- -- -- 0 1019.2 -- 51
2020-09-13 21:00:00 26.3 -- -- -- -- 0 1018.9 -- 62
2020-09-13 20:00:00 27.3 -- -- -- -- 0 1018.8 -- 57
2020-09-13 19:00:00 28 -- -- -- -- 0 1018.5 -- 55
2020-09-13 18:00:00 28.4 -- -- -- -- 0 1018.5 -- 52
2020-09-13 17:00:00 28.3 -- -- -- -- 0 1019.1 -- 54
2020-09-13 16:00:00 28.4 -- -- -- -- 0 1019.4 -- 53
2020-09-13 15:00:00 28.3 -- -- -- -- 0 1019.8 -- 54
2020-09-13 14:00:00 28.3 -- -- -- -- 0 1020.4 -- 54
2020-09-13 13:00:00 28.9 -- -- -- -- 0 1020.4 -- 51
2020-09-13 12:00:00 29.6 -- -- -- -- 0 1020.2 -- 43
2020-09-13 11:00:00 28.3 -- -- -- -- 0 1019.8 -- 50
2020-09-13 10:00:00 25.7 -- -- -- -- 0 1019 -- 60
2020-09-13 09:00:00 25 -- -- -- -- 0 1018.5 -- 64
2020-09-13 08:00:00 26.3 -- -- -- -- 0 1017.5 -- 51
2020-09-13 07:00:00 26.8 -- -- -- -- 0 1016.8 -- 45
2020-09-13 06:00:00 27.2 -- -- -- -- 0 1017 -- 37
2020-09-13 05:00:00 26.3 -- -- -- -- 0 1017.2 -- 46
2020-09-13 04:00:00 25.5 -- -- -- -- 0 1017.9 -- 55
2020-09-13 03:00:00 25.8 -- -- -- -- 0 1018.1 -- 53
2020-09-13 02:00:00 25.7 -- -- -- -- 0 1018.4 -- 55
2020-09-13 01:00:00 26.1 -- -- -- -- 0 1018.1 -- 48
2020-09-13 00:00:00 25.4 -- -- -- -- 0 1018.1 -- 60
2020-09-12 23:00:00 25.7 -- -- -- -- 0 1017.6 -- 60
2020-09-12 22:00:00 26.1 -- -- -- -- 0 1016.3 -- 56
2020-09-12 21:00:00 26.6 -- -- -- -- 0 1015.9 -- 53
2020-09-12 20:00:00 27.6 -- -- -- -- 0 1015.6 -- 49
2020-09-12 19:00:00 28.4 -- -- -- -- 0 1015.4 -- 50
2020-09-12 18:00:00 29.7 -- -- -- -- 0 1015.2 -- 47
2020-09-12 17:00:00 30.4 -- -- -- -- 0 1015.4 -- 46
2020-09-12 16:00:00 30.2 -- -- -- -- 0 1016 -- 49
2020-09-12 15:00:00 29.7 -- -- -- -- 0 1016.5 -- 48
2020-09-12 14:00:00 29.5 -- -- -- -- 0 1016.7 -- 51
2020-09-12 13:00:00 30.6 -- -- -- -- 0 1016.6 -- 46
2020-09-12 12:00:00 29.9 -- -- -- -- 0 1016.3 -- 40
2020-09-12 11:00:00 29.7 -- -- -- -- 0 1015.7 -- 35
2020-09-12 10:00:00 26.5 -- -- -- -- 0 1015.4 -- 57
2020-09-12 09:00:00 24.9 -- -- -- -- 0 1014.8 -- 50
2020-09-12 08:00:00 25.1 -- -- -- -- 0 1014.2 -- 50
2020-09-12 07:00:00 24.4 -- -- -- -- 0 1013.8 -- 55
2020-09-12 06:00:00 22.6 -- -- -- -- 0 1013.8 -- 59
2020-09-12 05:00:00 23.4 -- -- -- -- 0 1013.8 -- 61
2020-09-12 04:00:00 21.5 -- -- -- -- 0 1013.8 -- 64
2020-09-12 03:00:00 22.6 -- -- -- -- 0 1013.8 -- 62
2020-09-12 02:00:00 24.3 -- -- -- -- 0 1013.8 -- 61
2020-09-12 01:00:00 24.1 -- -- -- -- 0 1013.8 -- 68
2020-09-12 00:00:00 23.9 -- -- -- -- 0 1013.7 -- 65
2020-09-11 23:00:00 23.6 -- -- -- -- 0 1013.4 -- 73
2020-09-11 22:00:00 24 -- -- -- -- 0 1013.1 -- 73
2020-09-11 21:00:00 24.4 -- -- -- -- 0 1012.9 -- 76
2020-09-11 20:00:00 25.3 -- -- -- -- 0 1013 -- 72
2020-09-11 19:00:00 26.5 -- -- -- -- 0 1013.1 -- 66
2020-09-11 18:00:00 27 -- -- -- -- 0 1013.3 -- 61
2020-09-11 17:00:00 27.7 -- -- -- -- 0 1013.8 -- 55
2020-09-11 16:00:00 27.9 -- -- -- -- 0 1014.4 -- 59
2020-09-11 15:00:00 26.9 -- -- -- -- 0 1015 -- 64
2020-09-11 14:00:00 26.8 -- -- -- -- 0 1015.3 -- 65
2020-09-11 13:00:00 26.8 -- -- -- -- 0 1015.5 -- 62
2020-09-11 12:00:00 26.5 -- -- -- -- 0 1015.7 -- 56
2020-09-11 11:00:00 25.6 -- -- -- -- 0 1015.6 -- 58
2020-09-11 10:00:00 22 -- -- -- -- 0 1015.2 -- 84
2020-09-11 09:00:00 18.6 -- -- -- -- 0 1014.9 -- 88
2020-09-11 08:00:00 18.6 -- -- -- -- 0 1014.6 -- 87
2020-09-11 07:00:00 18.4 -- -- -- -- 0 1014.9 -- 86
2020-09-11 06:00:00 19.2 -- -- -- -- 0 1014.8 -- 85
2020-09-11 05:00:00 19.3 -- -- -- -- 0 1014.9 -- 85
2020-09-11 04:00:00 20.5 -- -- -- -- 0 1015.2 -- 83
2020-09-11 03:00:00 21.6 -- -- -- -- 0 1015.5 -- 83
2020-09-11 02:00:00 21.1 -- -- -- -- 0 1015.9 -- 81
2020-09-11 01:00:00 22 -- -- -- -- 0 1016.2 -- 79
2020-09-11 00:00:00 22.9 -- -- -- -- 0 1016.3 -- 80
2020-09-10 23:00:00 21.9 -- -- -- -- 0 1016.2 -- 71
2020-09-10 22:00:00 22.7 -- -- -- -- 0 1015.5 -- 68
2020-09-10 21:00:00 24 -- -- -- -- 0 1015.1 -- 69
2020-09-10 20:00:00 24.5 -- -- -- -- 0 1015.3 -- 68
2020-09-10 19:00:00 25.3 -- -- -- -- 0 1015.4 -- 66
2020-09-10 18:00:00 25.8 -- -- -- -- 0 1015.9 -- 66
2020-09-10 17:00:00 26 -- -- -- -- 0 1016.6 -- 65
2020-09-10 16:00:00 26.1 -- -- -- -- 0 1017.1 -- 61
2020-09-10 15:00:00 25.6 -- -- -- -- 0 1017.5 -- 60
2020-09-10 14:00:00 25.1 -- -- -- -- 0 1018.2 -- 63
2020-09-10 13:00:00 25.1 -- -- -- -- 0 1018.4 -- 68
2020-09-10 12:00:00 24.5 -- -- -- -- 0 1018.6 -- 70
2020-09-10 11:00:00 24 -- -- -- -- 0 1018.9 -- 73
2020-09-10 10:00:00 21.3 -- -- -- -- 0 1018.8 -- 87
2020-09-10 09:00:00 18.4 -- -- -- -- 0 1018.3 -- 88
2020-09-10 08:00:00 18.1 -- -- -- -- 0 1018.1 -- 87
2020-09-10 07:00:00 18 -- -- -- -- 0 1018 -- 86
2020-09-10 06:00:00 18.1 -- -- -- -- 0 1018.4 -- 85
2020-09-10 05:00:00 19 -- -- -- -- 0 1018.9 -- 83
2020-09-10 04:00:00 19.3 -- -- -- -- 0 1019.2 -- 82
2020-09-10 03:00:00 19.5 -- -- -- -- 0 1019.8 -- 81
2020-09-10 02:00:00 20.1 -- -- -- -- 0 1020.2 -- 79
2020-09-10 01:00:00 20.6 -- -- -- -- 0 1020.4 -- 76
2020-09-10 00:00:00 21.3 -- -- -- -- 0 1020.5 -- 74
2020-09-09 23:00:00 22.3 -- -- -- -- 0 1020.2 -- 74
2020-09-09 22:00:00 22.8 -- -- -- -- 0 1019.1 -- 71
2020-09-09 21:00:00 23.7 -- -- -- -- 0 1018.4 -- 67
2020-09-09 20:00:00 24.6 -- -- -- -- 0 1018.4 -- 64
2020-09-09 19:00:00 25.4 -- -- -- -- 0 1018.5 -- 61
2020-09-09 18:00:00 25.4 -- -- -- -- 0 1018.7 -- 59
2020-09-09 17:00:00 25.7 -- -- -- -- 0 1019.1 -- 60
2020-09-09 16:00:00 25.9 -- -- -- -- 0 1019.5 -- 59
2020-09-09 15:00:00 25.8 -- -- -- -- 0 1020 -- 59
2020-09-09 14:00:00 26.2 -- -- -- -- 0 1020.4 -- 56
2020-09-09 13:00:00 25.6 -- -- -- -- 0 1020.7 -- 57
2020-09-09 12:00:00 25.4 -- -- -- -- 0 1020.9 -- 54
2020-09-09 11:00:00 25.2 -- -- -- -- 0 1020.7 -- 57
2020-09-09 10:00:00 24.2 -- -- -- -- 0 1020.3 -- 59
2020-09-09 09:00:00 22 -- -- -- -- 0 1020 -- 70
2020-09-09 08:00:00 22.3 -- -- -- -- 0 1019.3 -- 68
2020-09-09 07:00:00 22.3 -- -- -- -- 0 1019 -- 70
2020-09-09 06:00:00 22.3 -- -- -- -- 0 1019.2 -- 67
2020-09-09 05:00:00 22.4 -- -- -- -- 0 1019.7 -- 68
2020-09-09 04:00:00 22.7 -- -- -- -- 0 1020 -- 70
2020-09-09 03:00:00 22.7 -- -- -- -- 0 1020.4 -- 69
2020-09-09 02:00:00 23 -- -- -- -- 0 1020.6 -- 69
2020-09-09 01:00:00 23.1 -- -- -- -- 0 1020.9 -- 67
2020-09-09 00:00:00 23.2 -- -- -- -- 0 1020.6 -- 67
2020-09-08 23:00:00 23.5 -- -- -- -- 0 1020.5 -- 64
2020-09-08 22:00:00 23.7 -- -- -- -- 0 1020 -- 62
2020-09-08 21:00:00 24.2 -- -- -- -- 0 1019.7 -- 61
2020-09-08 20:00:00 24.7 -- -- -- -- 0 1019.4 -- 64
2020-09-08 19:00:00 25.5 -- -- -- -- 0 1019 -- 61
2020-09-08 18:00:00 26.2 -- -- -- -- 0 1019.1 -- 58
2020-09-08 17:00:00 26.7 -- -- -- -- 0 1019.1 -- 58
2020-09-08 16:00:00 26.9 -- -- -- -- 0 1019.5 -- 58
2020-09-08 15:00:00 28.4 -- -- -- -- 0 1019.7 -- 50
2020-09-08 14:00:00 27.1 -- -- -- -- 0 1020 -- 46
2020-09-08 13:00:00 26 -- -- -- -- 0 1020.2 -- 53
2020-09-08 12:00:00 26 -- -- -- -- 0 1020.3 -- 53
2020-09-08 11:00:00 25.9 -- -- -- -- 0 1019.8 -- 48
2020-09-08 10:00:00 24.7 -- -- -- -- 0 1019.4 -- 58
2020-09-08 09:00:00 24.1 -- -- -- -- 0 1019.3 -- 61
2020-09-08 08:00:00 24 -- -- -- -- 0 1018.7 -- 64
2020-09-08 07:00:00 23.9 -- -- -- -- 0 1018.5 -- 63
2020-09-08 06:00:00 23.8 -- -- -- -- 0 1018.3 -- 65
2020-09-08 05:00:00 23.8 -- -- -- -- 0 1018.2 -- 65
2020-09-08 04:00:00 23.8 -- -- -- -- 0 1018.3 -- 69
2020-09-08 03:00:00 24.2 -- -- -- -- 0 1018.5 -- 68
2020-09-08 02:00:00 24 -- -- -- -- 0 1018.5 -- 74
2020-09-08 01:00:00 24 -- -- -- -- 0 1018.3 -- 75
2020-09-08 00:00:00 24.2 -- -- -- -- 0 1018.2 -- 72
2020-09-07 23:00:00 24 -- -- -- -- 0 1017.8 -- 77
2020-09-07 22:00:00 24 -- -- -- -- 0 1016.5 -- 78
2020-09-07 21:00:00 24.7 -- -- -- -- 0 1015.9 -- 73
2020-09-07 20:00:00 25.1 -- -- -- -- 0 1015.2 -- 68
2020-09-07 19:00:00 25 -- -- -- -- 0 1014.7 -- 69
2020-09-07 18:00:00 25.8 -- -- -- -- 0 1014.5 -- 67
2020-09-07 17:00:00 25.8 -- -- -- -- 0 1014.6 -- 69
2020-09-07 16:00:00 25.9 -- -- -- -- 0 1015.1 -- 70
2020-09-07 15:00:00 25.7 -- -- -- -- 0 1015.5 -- 69
2020-09-07 14:00:00 26.2 -- -- -- -- 0 1015.7 -- 67
2020-09-07 13:00:00 25.7 -- -- -- -- 0 1016 -- 69
2020-09-07 12:00:00 25.8 -- -- -- -- 0 1015.9 -- 68
2020-09-07 11:00:00 25 -- -- -- -- 0 1015.4 -- 72
2020-09-07 10:00:00 22.4 -- -- -- -- 0 1015.1 -- 85
2020-09-07 09:00:00 19.2 -- -- -- -- 0 1015 -- 87
2020-09-07 08:00:00 18.8 -- -- -- -- 0 1014.6 -- 86
2020-09-07 07:00:00 18.8 -- -- -- -- 0 1014.4 -- 86
2020-09-07 06:00:00 19 -- -- -- -- 0 1014.7 -- 85
2020-09-07 05:00:00 19.3 -- -- -- -- 0 1015.2 -- 85
2020-09-07 04:00:00 19.7 -- -- -- -- 0 1015.5 -- 84
2020-09-07 03:00:00 20 -- -- -- -- 0 1016 -- 82
2020-09-07 02:00:00 20.5 -- -- -- -- 0 1016.2 -- 80
2020-09-07 01:00:00 21.2 -- -- -- -- 0 1016.2 -- 78
2020-09-07 00:00:00 22 -- -- -- -- 0 1016.2 -- 76
2020-09-06 23:00:00 22.9 -- -- -- -- 0 1016 -- 73
2020-09-06 22:00:00 23.9 -- -- -- -- 0 1015.5 -- 71
2020-09-06 21:00:00 24.9 -- -- -- -- 0 1015.2 -- 71
2020-09-06 20:00:00 25.6 -- -- -- -- 0 1015.2 -- 69
2020-09-06 19:00:00 26.7 -- -- -- -- 0 1014.9 -- 65
2020-09-06 18:00:00 27 -- -- -- -- 0 1015.2 -- 63
2020-09-06 17:00:00 27.4 -- -- -- -- 0 1015.6 -- 59
2020-09-06 16:00:00 27.6 -- -- -- -- 0 1016 -- 61
2020-09-06 15:00:00 27.7 -- -- -- -- 0 1016.5 -- 62
2020-09-06 14:00:00 27.5 -- -- -- -- 0 1016.8 -- 62
2020-09-06 13:00:00 27.1 -- -- -- -- 0 1016.8 -- 60
2020-09-06 12:00:00 27 -- -- -- -- 0 1016.9 -- 57
2020-09-06 11:00:00 26.3 -- -- -- -- 0 1016.6 -- 60
2020-09-06 10:00:00 23.9 -- -- -- -- 0 1016.2 -- 76
2020-09-06 09:00:00 20 -- -- -- -- 0 1016.3 -- 86
2020-09-06 08:00:00 19.3 -- -- -- -- 0 1016.1 -- 84
2020-09-06 07:00:00 19.6 -- -- -- -- 0 1015.9 -- 83
2020-09-06 06:00:00 20 -- -- -- -- 0 1016.1 -- 80
2020-09-06 05:00:00 20.8 -- -- -- -- 0 1016 -- 78
2020-09-06 04:00:00 22.3 -- -- -- -- 0 1016.5 -- 75
2020-09-06 03:00:00 23.5 -- -- -- -- 0 1016.9 -- 74
2020-09-06 02:00:00 22.9 -- -- -- -- 0 1017.1 -- 77
2020-09-06 01:00:00 23.1 -- -- -- -- 0 1017.7 -- 75
2020-09-06 00:00:00 23.6 -- -- -- -- 0 1017.9 -- 73
2020-09-05 23:00:00 24.1 -- -- -- -- 0 1017.8 -- 75
2020-09-05 22:00:00 24.2 -- -- -- -- 0 1017.2 -- 74
2020-09-05 21:00:00 24.7 -- -- -- -- 0 1016.8 -- 70
2020-09-05 20:00:00 25.4 -- -- -- -- 0 1016.6 -- 70
2020-09-05 19:00:00 26.3 -- -- -- -- 0 1016.9 -- 66
2020-09-05 18:00:00 26.9 -- -- -- -- 0 1017.3 -- 65
2020-09-05 17:00:00 27.2 -- -- -- -- 0 1017.8 -- 63
2020-09-05 16:00:00 27.7 -- -- -- -- 0 1018.4 -- 61
2020-09-05 15:00:00 27.6 -- -- -- -- 0 1019 -- 59
2020-09-05 14:00:00 27.2 -- -- -- -- 0 1019.4 -- 58
2020-09-05 13:00:00 27.3 -- -- -- -- 0 1019.9 -- 51
2020-09-05 12:00:00 26.6 -- -- -- -- 0 1020.1 -- 54
2020-09-05 11:00:00 25.5 -- -- -- -- 0 1020 -- 60
2020-09-05 10:00:00 23.1 -- -- -- -- 0 1019.6 -- 75
2020-09-05 09:00:00 20.5 -- -- -- -- 0 1019.4 -- 82
2020-09-05 08:00:00 20.2 -- -- -- -- 0 1019.1 -- 81
2020-09-05 07:00:00 21.1 -- -- -- -- 0 1019.1 -- 79
2020-09-05 06:00:00 22.8 -- -- -- -- 0 1019.2 -- 75
2020-09-05 05:00:00 23 -- -- -- -- 0 1019.6 -- 76
2020-09-05 04:00:00 23.1 -- -- -- -- 0 1020 -- 77
2020-09-05 03:00:00 23.5 -- -- -- -- 0 1020.4 -- 77
2020-09-05 02:00:00 23.8 -- -- -- -- 0 1020.6 -- 75
2020-09-05 01:00:00 23.9 -- -- -- -- 0 1020.9 -- 75
2020-09-05 00:00:00 24.2 -- -- -- -- 0 1020.7 -- 74
2020-09-04 23:00:00 24.4 -- -- -- -- 0 1020.6 -- 72
2020-09-04 22:00:00 24.6 -- -- -- -- 0 1019.9 -- 70
2020-09-04 21:00:00 24.8 -- -- -- -- 0 1019.2 -- 69
2020-09-04 20:00:00 25.6 -- -- -- -- 0 1019.1 -- 68
2020-09-04 19:00:00 26.6 -- -- -- -- 0 1019 -- 66
2020-09-04 18:00:00 27.1 -- -- -- -- 0 1019.1 -- 63
2020-09-04 17:00:00 27.9 -- -- -- -- 0 1019.7 -- 61
2020-09-04 16:00:00 28.2 -- -- -- -- 0 1020.1 -- 58
2020-09-04 15:00:00 28.8 -- -- -- -- 0 1020.3 -- 50
2020-09-04 14:00:00 29.5 -- -- -- -- 0 1020.7 -- 49
2020-09-04 13:00:00 28.9 -- -- -- -- 0 1021.2 -- 47
2020-09-04 12:00:00 28.5 -- -- -- -- 0 1021.4 -- 44
2020-09-04 11:00:00 27.4 -- -- -- -- 0 1021.1 -- 39
2020-09-04 10:00:00 25.9 -- -- -- -- 0 1021.1 -- 44
2020-09-04 09:00:00 24.2 -- -- -- -- 0 1021.1 -- 49
2020-09-04 08:00:00 23.4 -- -- -- -- 0 1020.6 -- 50
2020-09-04 07:00:00 23.1 -- -- -- -- 0 1020.1 -- 58
2020-09-04 06:00:00 22.8 -- -- -- -- 0 1020 -- 69
2020-09-04 05:00:00 22.9 -- -- -- -- 0 1020.4 -- 66
2020-09-04 04:00:00 23.2 -- -- -- -- 0 1020.4 -- 72
2020-09-04 03:00:00 23.5 -- -- -- -- 0 1020.8 -- 74
2020-09-04 02:00:00 23.6 -- -- -- -- 0 1021.1 -- 72
2020-09-04 01:00:00 23.8 -- -- -- -- 0 1021.3 -- 70
2020-09-04 00:00:00 23.9 -- -- -- -- 0 1021 -- 68
2020-09-03 23:00:00 23.9 -- -- -- -- 0 1021 -- 74
2020-09-03 22:00:00 24.3 -- -- -- -- 0 1020.4 -- 74
2020-09-03 21:00:00 24.6 -- -- -- -- 0 1020.1 -- 73
2020-09-03 20:00:00 25.9 -- -- -- -- 0 1019.7 -- 68
2020-09-03 19:00:00 26.6 -- -- -- -- 0 1019.8 -- 65
2020-09-03 18:00:00 27.1 -- -- -- -- 0 1019.7 -- 63
2020-09-03 17:00:00 27.4 -- -- -- -- 0 1020.2 -- 63
2020-09-03 16:00:00 27.4 -- -- -- -- 0 1020.5 -- 63
2020-09-03 15:00:00 27.4 -- -- -- -- 0 1020.8 -- 62
2020-09-03 14:00:00 27.3 -- -- -- -- 0 1020.9 -- 61
2020-09-03 13:00:00 27.4 -- -- -- -- 0 1020.8 -- 61
2020-09-03 12:00:00 27.7 -- -- -- -- 0 1020.6 -- 54
2020-09-03 11:00:00 27 -- -- -- -- 0 1020.1 -- 53
2020-09-03 10:00:00 25.3 -- -- -- -- 0 1019.4 -- 57
2020-09-03 09:00:00 23 -- -- -- -- 0 1019 -- 72
2020-09-03 08:00:00 22.5 -- -- -- -- 0 1018.5 -- 68
2020-09-03 07:00:00 22.5 -- -- -- -- 0 1018.2 -- 73
2020-09-03 06:00:00 22.4 -- -- -- -- 0 1017.8 -- 75
2020-09-03 05:00:00 22.6 -- -- -- -- 0 1017.9 -- 76
2020-09-03 04:00:00 23 -- -- -- -- 0 1018 -- 75
2020-09-03 03:00:00 23.2 -- -- -- -- 0 1017.9 -- 76
2020-09-03 02:00:00 23.1 -- -- -- -- 0 1018.1 -- 75
2020-09-03 01:00:00 23.3 -- -- -- -- 0 1018.1 -- 72
2020-09-03 00:00:00 22.9 -- -- -- -- 0 1018 -- 75
2020-09-02 23:00:00 23.1 -- -- -- -- 0 1017.4 -- 71
2020-09-02 22:00:00 23.7 -- -- -- -- 0 1016.9 -- 68
2020-09-02 21:00:00 24.9 -- -- -- -- 0 1016.1 -- 66
2020-09-02 20:00:00 25.8 -- -- -- -- 0 1015.8 -- 63
2020-09-02 19:00:00 26.2 -- -- -- -- 0 1015.7 -- 66
2020-09-02 18:00:00 26.4 -- -- -- -- 0 1015.3 -- 65
2020-09-02 17:00:00 27.1 -- -- -- -- 0 1015.2 -- 61
2020-09-02 16:00:00 26.8 -- -- -- -- 0 1015.7 -- 63
2020-09-02 15:00:00 26.7 -- -- -- -- 0 1016 -- 60
2020-09-02 14:00:00 27 -- -- -- -- 0 1015.9 -- 58
2020-09-02 13:00:00 26.5 -- -- -- -- 0 1015.7 -- 56
2020-09-02 12:00:00 26.3 -- -- -- -- 0 1015.4 -- 57
2020-09-02 11:00:00 24.7 -- -- -- -- 0 1014.8 -- 65
2020-09-02 10:00:00 22.2 -- -- -- -- 0 1014 -- 84
2020-09-02 09:00:00 18.1 -- -- -- -- 0 1013.5 -- 86
2020-09-02 08:00:00 17.9 -- -- -- -- 0 1013 -- 85
2020-09-02 07:00:00 17.7 -- -- -- -- 0 1012.7 -- 85
2020-09-02 06:00:00 18.1 -- -- -- -- 0 1012.5 -- 85
2020-09-02 05:00:00 18.1 -- -- -- -- 0 1012.8 -- 84
2020-09-02 04:00:00 17.9 -- -- -- -- 0 1013 -- 82
2020-09-02 03:00:00 18.4 -- -- -- -- 0 1013.1 -- 82
2020-09-02 02:00:00 18.7 -- -- -- -- 0 1013.4 -- 81
2020-09-02 01:00:00 19.4 -- -- -- -- 0 1013.1 -- 80
2020-09-02 00:00:00 20.1 -- -- -- -- 0 1013 -- 78
2020-09-01 23:00:00 20.8 -- -- -- -- 0 1012.7 -- 76
2020-09-01 22:00:00 21.8 -- -- -- -- 0 1012.1 -- 75
2020-09-01 21:00:00 23.4 -- -- -- -- 0 1011.7 -- 72
2020-09-01 20:00:00 24.6 -- -- -- -- 0 1011.2 -- 67
2020-09-01 19:00:00 24.6 -- -- -- -- 0 1011.9 -- 70
2020-09-01 18:00:00 23.9 -- -- -- -- 0 1011 -- 73
2020-09-01 17:00:00 24.2 -- -- -- -- 0 1012.3 -- 72
2020-09-01 16:00:00 25.1 -- -- -- -- 0 1012.9 -- 67
2020-09-01 15:00:00 25.5 -- -- -- -- 0 1013 -- 63
2020-09-01 14:00:00 25.4 -- -- -- -- 0 1013.6 -- 57
2020-09-01 13:00:00 25.8 -- -- -- -- 0 1013.9 -- 52
2020-09-01 12:00:00 26.4 -- -- -- -- 0 1014.1 -- 48
2020-09-01 11:00:00 25.7 -- -- -- -- 0 1013.8 -- 55
2020-09-01 10:00:00 23.3 -- -- -- -- 0 1013.8 -- 68
2020-09-01 09:00:00 19 -- -- -- -- 0 1013.9 -- 82
2020-09-01 08:00:00 18.6 -- -- -- -- 0 1013.8 -- 81
2020-09-01 07:00:00 20.3 -- -- -- -- 0 1013.6 -- 81
2020-09-01 06:00:00 20.2 -- -- -- -- 0 1013.4 -- 79
2020-09-01 05:00:00 21.5 -- -- -- -- 0 1013.6 -- 79
2020-09-01 04:00:00 22 -- -- -- -- 0 1014.2 -- 75
2020-09-01 03:00:00 22.4 -- -- -- -- 0 1014.8 -- 72
2020-09-01 02:00:00 22.7 -- -- -- -- 0 1015.4 -- 64
2020-09-01 01:00:00 22.5 -- -- -- -- 0 1015.8 -- 71
2020-09-01 00:00:00 22.6 -- -- -- -- 0 1015.9 -- 73
2020-08-31 23:00:00 22.8 -- -- -- -- 0 1016 -- 71
2020-08-31 22:00:00 22.7 -- -- -- -- 0 1015.4 -- 74
2020-08-31 21:00:00 23.8 -- -- -- -- 0 1014.9 -- 67
2020-08-31 20:00:00 25 -- -- -- -- 0 1015.1 -- 63
2020-08-31 19:00:00 25.8 -- -- -- -- 0 1015.5 -- 61
2020-08-31 18:00:00 26.4 -- -- -- -- 0 1015.9 -- 58
2020-08-31 17:00:00 26.8 -- -- -- -- 0 1016.4 -- 56
2020-08-31 16:00:00 26.7 -- -- -- -- 0 1017 -- 59
2020-08-31 15:00:00 26.2 -- -- -- -- 0 1017.4 -- 60
2020-08-31 14:00:00 26 -- -- -- -- 0 1017.6 -- 61
2020-08-31 13:00:00 26.7 -- -- -- -- 0 1018.1 -- 54
2020-08-31 12:00:00 26.9 -- -- -- -- 0 1018.1 -- 52
2020-08-31 11:00:00 25.4 -- -- -- -- 0 1017.6 -- 55
2020-08-31 10:00:00 22.8 -- -- -- -- 0 1017.3 -- 73
2020-08-31 09:00:00 21.2 -- -- -- -- 0 1016.9 -- 78
2020-08-31 08:00:00 20.1 -- -- -- -- 0 1016.2 -- 80
2020-08-31 07:00:00 20.7 -- -- -- -- 0 1015.7 -- 78
2020-08-31 06:00:00 20.9 -- -- -- -- 0 1015.5 -- 77
2020-08-31 05:00:00 20.7 -- -- -- -- 0 1015.6 -- 80
2020-08-31 04:00:00 20.8 -- -- -- -- 0 1015.3 -- 79
2020-08-31 03:00:00 22 -- -- -- -- 0 1015.6 -- 74
2020-08-31 02:00:00 21.8 -- -- -- -- 0 1015.6 -- 77
2020-08-31 01:00:00 22.1 -- -- -- -- 0 1015.4 -- 77
2020-08-31 00:00:00 22.6 -- -- -- -- 0 1014.9 -- 75
2020-08-30 23:00:00 21.8 -- -- -- -- 0 1014.2 -- 80
2020-08-30 22:00:00 21.4 -- -- -- -- 0 1013 -- 79
2020-08-30 21:00:00 22.6 -- -- -- -- 0 1011.8 -- 75
2020-08-30 20:00:00 24.1 -- -- -- -- 0 1011.2 -- 71
2020-08-30 19:00:00 25 -- -- -- -- 0 1010.8 -- 65
2020-08-30 18:00:00 25.4 -- -- -- -- 0 1010.7 -- 63
2020-08-30 17:00:00 25.6 -- -- -- -- 0 1010.7 -- 61
2020-08-30 16:00:00 25.7 -- -- -- -- 0 1010.7 -- 60
2020-08-30 15:00:00 25.5 -- -- -- -- 0 1011 -- 61
2020-08-30 14:00:00 26.9 -- -- -- -- 0 1011.2 -- 52
2020-08-30 13:00:00 26.1 -- -- -- -- 0 1011.5 -- 40
2020-08-30 12:00:00 25.1 -- -- -- -- 0 1011.5 -- 45
2020-08-30 11:00:00 26.1 -- -- -- -- 0 1011 -- 47
2020-08-30 10:00:00 24.4 -- -- -- -- 0 1010.6 -- 59
2020-08-30 09:00:00 21.5 -- -- -- -- 0 1010.2 -- 81
2020-08-30 08:00:00 20.6 -- -- -- -- 0 1009.9 -- 86
2020-08-30 07:00:00 20.1 -- -- -- -- 0 1009.6 -- 84
2020-08-30 06:00:00 20.7 -- -- -- -- 0 1009.2 -- 81
2020-08-30 05:00:00 20.1 -- -- -- -- 0 1009.1 -- 81
2020-08-30 04:00:00 20 -- -- -- -- 0 1009.2 -- 79
2020-08-30 03:00:00 20.2 -- -- -- -- 0 1008.7 -- 78
2020-08-30 02:00:00 19.7 -- -- -- -- 0 1008.1 -- 81
2020-08-30 01:00:00 18.6 -- -- -- -- 0 1007.3 -- 81
2020-08-30 00:00:00 18.8 -- -- -- -- 0 1006.4 -- 77
2020-08-29 23:00:00 20.9 -- -- -- -- 0 1005.2 -- 73
2020-08-29 22:00:00 21 -- -- -- -- 0 1003.9 -- 66
2020-08-29 21:00:00 22.2 -- -- -- -- 0 1003 -- 63
2020-08-29 20:00:00 23.2 -- -- -- -- 0 1002.2 -- 61
2020-08-29 19:00:00 23.4 -- -- -- -- 0 1002.1 -- 58
2020-08-29 18:00:00 24.6 -- -- -- -- 0 1001.7 -- 56
2020-08-29 17:00:00 25.2 -- -- -- -- 0 1002.4 -- 54
2020-08-29 16:00:00 25.7 -- -- -- -- 0 1002.8 -- 50
2020-08-29 15:00:00 24.2 -- -- -- -- 0 1003.4 -- 54
2020-08-29 14:00:00 24 -- -- -- -- 0 1003.6 -- 53
2020-08-29 13:00:00 23.6 -- -- -- -- 0 1003.9 -- 55
2020-08-29 12:00:00 23.7 -- -- -- -- 0 1003.9 -- 57
2020-08-29 11:00:00 23.3 -- -- -- -- 0 1003.8 -- 61
2020-08-29 10:00:00 23 -- -- -- -- 0 1003.4 -- 68
2020-08-29 09:00:00 22.4 -- -- -- -- 0 1003 -- 70
2020-08-29 08:00:00 22.5 -- -- -- -- 0 1002.5 -- 71
2020-08-29 07:00:00 22.6 -- -- -- -- 0 1002.2 -- 74
2020-08-29 06:00:00 23.2 -- -- -- -- 0 1001.7 -- 76
2020-08-29 05:00:00 23.7 -- -- -- -- 0 1001.7 -- 75
2020-08-29 04:00:00 23.7 -- -- -- -- 0 1002.1 -- 76
2020-08-29 03:00:00 25.3 -- -- -- -- 0 1002.1 -- 74
2020-08-29 02:00:00 25 -- -- -- -- 0 1002.5 -- 76
2020-08-29 01:00:00 25 -- -- -- -- 0 1002.9 -- 74
2020-08-29 00:00:00 25.1 -- -- -- -- 0 1003.1 -- 74
2020-08-28 23:00:00 25.1 -- -- -- -- 0 1003.1 -- 75
2020-08-28 22:00:00 24.9 -- -- -- -- 0 1002.8 -- 75
2020-08-28 21:00:00 25.1 -- -- -- -- 0 1002.4 -- 75
2020-08-28 20:00:00 26.1 -- -- -- -- 0 1003 -- 69
2020-08-28 19:00:00 26.4 -- -- -- -- 0 1003.4 -- 68
2020-08-28 18:00:00 26.9 -- -- -- -- 0 1004 -- 66
2020-08-28 17:00:00 27.2 -- -- -- -- 0 1004.9 -- 64
2020-08-28 16:00:00 27.4 -- -- -- -- 0 1006.1 -- 65
2020-08-28 15:00:00 27.4 -- -- -- -- 0 1007.1 -- 66
2020-08-28 14:00:00 28.2 -- -- -- -- 0 1007.9 -- 66
2020-08-28 13:00:00 27.3 -- -- -- -- 0 1008.6 -- 72
2020-08-28 12:00:00 26.3 -- -- -- -- 0 1009.1 -- 76
2020-08-28 11:00:00 25.4 -- -- -- -- 0 1008.9 -- 82
2020-08-28 10:00:00 24.4 -- -- -- -- 0 1009 -- 87
2020-08-28 09:00:00 23.7 -- -- -- -- 0 1009.2 -- 88
2020-08-28 08:00:00 23.2 -- -- -- -- 0 1009.3 -- 89
2020-08-28 07:00:00 22.8 -- -- -- -- 0 1009.5 -- 89
2020-08-28 06:00:00 21.7 -- -- -- -- 0 1009.8 -- 88
2020-08-28 05:00:00 21.8 -- -- -- -- 0 1010.2 -- 88
2020-08-28 04:00:00 22.1 -- -- -- -- 0 1010.9 -- 87
2020-08-28 03:00:00 22.6 -- -- -- -- 0 1011.5 -- 87
2020-08-28 02:00:00 22.4 -- -- -- -- 0 1012.1 -- 86
2020-08-28 01:00:00 23.2 -- -- -- -- 0 1012.5 -- 84
2020-08-28 00:00:00 24.2 -- -- -- -- 0 1012.9 -- 84
2020-08-27 23:00:00 25.1 -- -- -- -- 0 1012.9 -- 82
2020-08-27 22:00:00 25.2 -- -- -- -- 0 1013 -- 80
2020-08-27 21:00:00 26 -- -- -- -- 0 1013 -- 78
2020-08-27 20:00:00 27.2 -- -- -- -- 0 1013.2 -- 71
2020-08-27 19:00:00 28.4 -- -- -- -- 0 1013.4 -- 69
2020-08-27 18:00:00 28.7 -- -- -- -- 0 1014.1 -- 68
2020-08-27 17:00:00 28.8 -- -- -- -- 0 1014.8 -- 68
2020-08-27 16:00:00 29.4 -- -- -- -- 0 1015.7 -- 66
2020-08-27 15:00:00 28.5 -- -- -- -- 0 1016.4 -- 71
2020-08-27 14:00:00 28 -- -- -- -- 0 1016.9 -- 71
2020-08-27 13:00:00 27.6 -- -- -- -- 0 1017.2 -- 74
2020-08-27 12:00:00 26.7 -- -- -- -- 0 1017.3 -- 79
2020-08-27 11:00:00 25.7 -- -- -- -- 0 1017.2 -- 87
2020-08-27 10:00:00 24.7 -- -- -- -- 0 1017.2 -- 89
2020-08-27 09:00:00 22.3 -- -- -- -- 0 1016.9 -- 89
2020-08-27 08:00:00 20.9 -- -- -- -- 0 1016.9 -- 89
2020-08-27 07:00:00 21.7 -- -- -- -- 0 1016.5 -- 88
2020-08-27 06:00:00 21.5 -- -- -- -- 0 1016.8 -- 88
2020-08-27 05:00:00 22.2 -- -- -- -- 0 1017.2 -- 87
2020-08-27 04:00:00 22.6 -- -- -- -- 0 1017.4 -- 86
2020-08-27 03:00:00 23.1 -- -- -- -- 0 1017.7 -- 86
2020-08-27 02:00:00 23.4 -- -- -- -- 0 1018.1 -- 84
2020-08-27 01:00:00 23.8 -- -- -- -- 0 1018.3 -- 83
2020-08-27 00:00:00 24.5 -- -- -- -- 0 1018.3 -- 82
2020-08-26 23:00:00 25.1 -- -- -- -- 0 1017.8 -- 81
2020-08-26 22:00:00 25.8 -- -- -- -- 0 1017.2 -- 79
2020-08-26 21:00:00 26.7 -- -- -- -- 0 1016.6 -- 76
2020-08-26 20:00:00 27.3 -- -- -- -- -- 1016.4 -- 73
2020-08-26 19:00:00 -- -- -- -- -- -- -- -- --
2020-08-26 18:00:00 -- -- -- -- -- -- -- -- --
2020-08-26 17:00:00 -- -- -- -- -- -- -- -- --
2020-08-26 16:00:00 28.9 -- -- -- -- 0 1017.3 -- 64
2020-08-26 15:00:00 28 -- -- -- -- 0 1017.7 -- 67
2020-08-26 14:00:00 27.5 -- -- -- -- 0 1018.2 -- 69
2020-08-26 13:00:00 27.2 -- -- -- -- 0 1018.4 -- 71
2020-08-26 12:00:00 27.1 -- -- -- -- 0 1018.4 -- 74
2020-08-26 11:00:00 24.9 -- -- -- -- 0 1018.2 -- 85
2020-08-26 10:00:00 24.4 -- -- -- -- 0 1017.8 -- 89
2020-08-26 09:00:00 21.9 -- -- -- -- 0 1017.2 -- 90
2020-08-26 08:00:00 20.7 -- -- -- -- 0 1016.6 -- 89
2020-08-26 07:00:00 20.8 -- -- -- -- 0 1016 -- 89
2020-08-26 06:00:00 20.4 -- -- -- -- 0 1016.1 -- 88
2020-08-26 05:00:00 21.8 -- -- -- -- 0 1016.2 -- 87
2020-08-26 04:00:00 22.2 -- -- -- -- 0 1016.4 -- 87
2020-08-26 03:00:00 22.3 -- -- -- -- 0 1016.8 -- 85
2020-08-26 02:00:00 22.5 -- -- -- -- 0 1016.9 -- 83
2020-08-26 01:00:00 23.8 -- -- -- -- 0 1016.5 -- 83
2020-08-26 00:00:00 23.9 -- -- -- -- 0 1016.4 -- 81
2020-08-25 23:00:00 24.9 -- -- -- -- 0 1016.1 -- 79
2020-08-25 22:00:00 25.8 -- -- -- -- 0 1015.2 -- 78
2020-08-25 21:00:00 26.7 -- -- -- -- -- 1014.6 -- 76
2020-08-25 20:00:00 -- -- -- -- -- -- -- -- --
2020-08-25 19:00:00 28.1 -- -- -- -- 0 1014.2 -- 70
2020-08-25 18:00:00 28.2 -- -- -- -- 0 1014.4 -- 70
2020-08-25 17:00:00 28.5 -- -- -- -- 0 1015 -- 70
2020-08-25 16:00:00 28.3 -- -- -- -- 0 1015.6 -- 71
2020-08-25 15:00:00 28.7 -- -- -- -- 0 1015.9 -- 68
2020-08-25 14:00:00 28.6 -- -- -- -- 0 1016 -- 67
2020-08-25 13:00:00 28 -- -- -- -- 0 1016.1 -- 68
2020-08-25 12:00:00 27.7 -- -- -- -- 0 1015.7 -- 70
2020-08-25 11:00:00 27 -- -- -- -- -- 1015.6 -- 77
2020-08-25 10:00:00 24.7 -- -- -- -- 0 1015.4 -- 87
2020-08-25 09:00:00 22.8 -- -- -- -- -- 1015.2 -- 88
2020-08-25 08:00:00 21.9 -- -- -- -- 0 1014.8 -- 87
2020-08-25 07:00:00 22.1 -- -- -- -- 0 1014.4 -- 87
2020-08-25 06:00:00 22.8 -- -- -- -- 0 1014.7 -- 86
2020-08-25 05:00:00 22.6 -- -- -- -- 0 1015 -- 84
2020-08-25 04:00:00 23.8 -- -- -- -- 0 1015.1 -- 84
2020-08-25 03:00:00 23.9 -- -- -- -- 0 1015.2 -- 84
2020-08-25 02:00:00 24.3 -- -- -- -- 0 1015.6 -- 84
2020-08-25 01:00:00 25.1 -- -- -- -- 0 1015.7 -- 84
2020-08-25 00:00:00 25.6 -- -- -- -- 0 1015.7 -- 84
2020-08-24 23:00:00 25.7 -- -- -- -- 0 1015.3 -- 83
2020-08-24 22:00:00 26 -- -- -- -- 0 1014.5 -- 81
2020-08-24 21:00:00 26.7 -- -- -- -- 0 1014.2 -- 77
2020-08-24 20:00:00 27.7 -- -- -- -- 0 1014.1 -- 73
2020-08-24 19:00:00 28.5 -- -- -- -- 0 1014.2 -- 70
2020-08-24 18:00:00 28.9 -- -- -- -- 0 1014.4 -- 69
2020-08-24 17:00:00 29.3 -- -- -- -- 0 1014.8 -- 67
2020-08-24 16:00:00 29.2 -- -- -- -- 0 1015.3 -- 68
2020-08-24 15:00:00 29.3 -- -- -- -- 0 1015.7 -- 68
2020-08-24 14:00:00 29.2 -- -- -- -- 0 1016.1 -- 68
2020-08-24 13:00:00 28.8 -- -- -- -- 0 1016.2 -- 69
2020-08-24 12:00:00 28.2 -- -- -- -- 0 1016.1 -- 72
2020-08-24 11:00:00 28.3 -- -- -- -- 0 1015.8 -- 69
2020-08-24 10:00:00 25.9 -- -- -- -- 0 1015.8 -- 84
2020-08-24 09:00:00 24.2 -- -- -- -- 0 1015.6 -- 87
2020-08-24 08:00:00 23.1 -- -- -- -- 0 1015.6 -- 87
2020-08-24 07:00:00 22.6 -- -- -- -- 0 1015.3 -- 86
2020-08-24 06:00:00 23.4 -- -- -- -- 0 1015.3 -- 86
2020-08-24 05:00:00 23.6 -- -- -- -- 0 1015.3 -- 85
2020-08-24 04:00:00 23.7 -- -- -- -- 0 1015.4 -- 84
2020-08-24 03:00:00 24.1 -- -- -- -- 0 1015.9 -- 84
2020-08-24 02:00:00 24.7 -- -- -- -- 0 1016.3 -- 84
2020-08-24 01:00:00 25.1 -- -- -- -- 0 1016.6 -- 84
2020-08-24 00:00:00 25.7 -- -- -- -- 0 1016.6 -- 84
2020-08-23 23:00:00 26 -- -- -- -- 0 1016.4 -- 82
2020-08-23 22:00:00 26.3 -- -- -- -- 0 1015.8 -- 81
2020-08-23 21:00:00 27 -- -- -- -- 0 1015.5 -- 77
2020-08-23 20:00:00 27.9 -- -- -- -- 0 1015.5 -- 73
2020-08-23 19:00:00 28.2 -- -- -- -- 0 1015.7 -- 71
2020-08-23 18:00:00 29.3 -- -- -- -- 0 1016 -- 68
2020-08-23 17:00:00 29.2 -- -- -- -- 0 1016.7 -- 69
2020-08-23 16:00:00 29.2 -- -- -- -- 0 1017.3 -- 69
2020-08-23 15:00:00 29.2 -- -- -- -- 0 1017.7 -- 70
2020-08-23 14:00:00 28.4 -- -- -- -- 0 1018.4 -- 73
2020-08-23 13:00:00 27.6 -- -- -- -- 0 1018.9 -- 75
2020-08-23 12:00:00 27.8 -- -- -- -- 0 1018.7 -- 74
2020-08-23 11:00:00 27.4 -- -- -- -- 0 1018.5 -- 72
2020-08-23 10:00:00 25.9 -- -- -- -- 0 1017.6 -- 81
2020-08-23 09:00:00 22.7 -- -- -- -- 0 1017.3 -- 87
2020-08-23 08:00:00 21.3 -- -- -- -- 0 1017 -- 88
2020-08-23 07:00:00 22.3 -- -- -- -- 0 1017.1 -- 88
2020-08-23 06:00:00 23.5 -- -- -- -- 0 1017.7 -- 88
2020-08-23 05:00:00 24.1 -- -- -- -- 0 1018.1 -- 86
2020-08-23 04:00:00 22.1 -- -- -- -- 0 1017.7 -- 85
2020-08-23 03:00:00 21.8 -- -- -- -- 0 1017.7 -- 84
2020-08-23 02:00:00 22.6 -- -- -- -- 0 1017.8 -- 85
2020-08-23 01:00:00 23.8 -- -- -- -- 0 1017.9 -- 84
2020-08-23 00:00:00 23.9 -- -- -- -- 0 1018.3 -- 81
2020-08-22 23:00:00 23.8 -- -- -- -- 0 1018 -- 80
2020-08-22 22:00:00 24.6 -- -- -- -- 0 1017.4 -- 79
2020-08-22 21:00:00 26.2 -- -- -- -- 0 1016.6 -- 74
2020-08-22 20:00:00 27.2 -- -- -- -- 0 1016.4 -- 71
2020-08-22 19:00:00 27.9 -- -- -- -- 0 1016.4 -- 67
2020-08-22 18:00:00 28 -- -- -- -- 0 1017 -- 63
2020-08-22 17:00:00 27.2 -- -- -- -- 0 1017.3 -- 72
2020-08-22 16:00:00 27.1 -- -- -- -- 0 1017.9 -- 71
2020-08-22 15:00:00 27 -- -- -- -- 0 1018.1 -- 72
2020-08-22 14:00:00 26.8 -- -- -- -- 0 1018.2 -- 71
2020-08-22 13:00:00 26 -- -- -- -- 0 1018.5 -- 74
2020-08-22 12:00:00 24.6 -- -- -- -- 0 1018.3 -- 85
2020-08-22 11:00:00 23.8 -- -- -- -- 0 1017.4 -- 89
2020-08-22 10:00:00 23.1 -- -- -- -- 0 1016.8 -- 90
2020-08-22 09:00:00 20.9 -- -- -- -- 0 1016.2 -- 91
2020-08-22 08:00:00 21.3 -- -- -- -- 0 1015.7 -- 90
2020-08-22 07:00:00 21.9 -- -- -- -- 0 1015.9 -- 90
2020-08-22 06:00:00 22.8 -- -- -- -- 0 1016 -- 89
2020-08-22 05:00:00 21.2 -- -- -- -- 0 1015.3 -- 89
2020-08-22 04:00:00 21.2 -- -- -- -- 0 1015.5 -- 87
2020-08-22 03:00:00 21.3 -- -- -- -- 0 1016.3 -- 87
2020-08-22 02:00:00 21.2 -- -- -- -- 0 1016.6 -- 87
2020-08-22 01:00:00 22 -- -- -- -- 0 1016.6 -- 85
2020-08-22 00:00:00 22.8 -- -- -- -- 0 1015.7 -- 85
2020-08-21 23:00:00 23.4 -- -- -- -- 0 1015.2 -- 83
2020-08-21 22:00:00 23.9 -- -- -- -- 0 1014.1 -- 79
2020-08-21 21:00:00 25 -- -- -- -- 0 1013.3 -- 73
2020-08-21 20:00:00 26.2 -- -- -- -- 0 1013.5 -- 72
2020-08-21 19:00:00 27.3 -- -- -- -- 0 1014 -- 67
2020-08-21 18:00:00 27.6 -- -- -- -- 0 1013.7 -- 59
2020-08-21 17:00:00 27.9 -- -- -- -- 0 1013.9 -- 61
2020-08-21 16:00:00 27.4 -- -- -- -- 0 1014.2 -- 68
2020-08-21 15:00:00 26.9 -- -- -- -- 0 1014.6 -- 70
2020-08-21 14:00:00 26.8 -- -- -- -- 0 1014.5 -- 68
2020-08-21 13:00:00 27.2 -- -- -- -- 0 1014.7 -- 68
2020-08-21 12:00:00 26.4 -- -- -- -- 0 1014.2 -- 68
2020-08-21 11:00:00 25.9 -- -- -- -- 0 1014.1 -- 73
2020-08-21 10:00:00 24.7 -- -- -- -- 0 1013.4 -- 75
2020-08-21 09:00:00 23.2 -- -- -- -- 0 1012.5 -- 79
2020-08-21 08:00:00 23.4 -- -- -- -- 0 1011.4 -- 78
2020-08-21 07:00:00 24.4 -- -- -- -- 0 1010.8 -- 74
2020-08-21 06:00:00 23.6 -- -- -- -- 0 1010.2 -- 78
2020-08-21 05:00:00 22.6 -- -- -- -- 0 1010.3 -- 82
2020-08-21 04:00:00 21.2 -- -- -- -- 0 1010.9 -- 80
2020-08-21 03:00:00 21.6 -- -- -- -- 0 1011.3 -- 76
2020-08-21 02:00:00 22.5 -- -- -- -- 0 1011.5 -- 75
2020-08-21 01:00:00 23.1 -- -- -- -- 0 1011.1 -- 68
2020-08-21 00:00:00 23.8 -- -- -- -- 0 1010.9 -- 63
2020-08-20 23:00:00 25.2 -- -- -- -- 0 1010.2 -- 61
2020-08-20 22:00:00 26.2 -- -- -- -- 0 1009.2 -- 64
2020-08-20 21:00:00 27.9 -- -- -- -- 0 1008.1 -- 54
2020-08-20 20:00:00 29 -- -- -- -- 0 1008.1 -- 47
2020-08-20 19:00:00 28.9 -- -- -- -- 0 1008.4 -- 40
2020-08-20 18:00:00 30.1 -- -- -- -- 0 1008.2 -- 48
2020-08-20 17:00:00 28.7 -- -- -- -- 0 1008.9 -- 56
2020-08-20 16:00:00 27.8 -- -- -- -- 0 1009.8 -- 63
2020-08-20 15:00:00 27.2 -- -- -- -- 0 1010.1 -- 66
2020-08-20 14:00:00 26.4 -- -- -- -- 0 1010.2 -- 70
2020-08-20 13:00:00 25.7 -- -- -- -- 0 1010.5 -- 74
2020-08-20 12:00:00 25 -- -- -- -- 0 1010.5 -- 81
2020-08-20 11:00:00 24.3 -- -- -- -- 0 1009.7 -- 86
2020-08-20 10:00:00 23.4 -- -- -- -- 0 1009 -- 90
2020-08-20 09:00:00 22.5 -- -- -- -- 0 1008.6 -- 90
2020-08-20 08:00:00 22.1 -- -- -- -- 0 1007.9 -- 89
2020-08-20 07:00:00 22.3 -- -- -- -- 0 1007.7 -- 88
2020-08-20 06:00:00 22.8 -- -- -- -- 0 1007.8 -- 86
2020-08-20 05:00:00 21.9 -- -- -- -- 0 1007.9 -- 83
2020-08-20 04:00:00 21.6 -- -- -- -- 0 1008.2 -- 81
2020-08-20 03:00:00 21.8 -- -- -- -- 0 1008.8 -- 79
2020-08-20 02:00:00 22.3 -- -- -- -- 0 1009.2 -- 80
2020-08-20 01:00:00 23.1 -- -- -- -- 0 1009.1 -- 80
2020-08-20 00:00:00 23.4 -- -- -- -- 0 1008.9 -- 79